Decoded Metar for KDIJ (DRIGGS REED MEM in ID, USA) (IATA:DIJ) | Meteo·Mobile Aviation Weather
aviador You're here:

KDIJ Decoded Metar

DRIGGS REED MEM in ID, USA
Report Time2019-07-16 11:56:00
UTC Time2019-07-16 12:36:32
Flight Rules vfr VFR
Wind340° at 04 kt
W.Decomp.*RWY 03: 1.9 kt HW 3.5 kt LCW
Visibility9999 m
Phenomena:N/A
Clouds:N/A
Expected CloudBase > 1,200 ft AGL from Temp-Dew spread
CeilingNone
Temp10°C (ISA +7)
Dew Point07°C (82% RH)
AAT7.9°C
QNH1020 hPa
Density Alt7,014 ft
Elevation6,230 ft
Report Wrong Elevation
Raw Report
KDIJ 161156Z AUTO 34004KT 10SM CLR 10/07 A3012 RMK AO2 SLP135
T01000067 10133 20094 53003 $=

Extra information for KDIJ:More info

Metar Taf Metar & Taf Last 4 Metars F.Rules Stats Wind Profile Meteogram Temp Stats Airport Information Weather charts Add Link Nearby VenuesMetar ALERT Operation Metar Decoded Social comments

AIRNAV info for KDIJ